Laayoune, Western Sahara
Current Conditions -  °F | °C
As of 2:00 AM on Tuesday 21 Oct 2014 (Local Time) from GMML Reporting Station
Clear Clear  
Wind Chill: 72°   Ceiling: Unl
Heat Index: 72°   Visibility: 5mi
Dew Point: 63°   Wind: 8mph
Humidity: 73%   Direction: 10°N
Pressure: 30"   Gusts: NA
Location:  27.15°N, 13.2°W
Report Text: GMML 210200Z 01007KT 8000 NSC 22/17 Q1016 NOSIG
Loading
Personal Weather Stations






























Interactive Weather Map
Tropical Storm Tracking
New forecast layout! Learn more

10-Day Weather Forecast

Advertisements
Track Severe Weather on mobile